createdAt,value
2022-10-13T00:00:25.425Z,66.04
2022-10-13T00:02:51.890Z,67.42
2022-10-13T00:05:18.853Z,66.18
2022-10-13T00:07:45.181Z,66.12
2022-10-13T00:10:11.501Z,66.03
2022-10-13T00:12:38.523Z,66.39
2022-10-13T00:15:07.110Z,66.31
2022-10-13T00:17:34.025Z,65.56
2022-10-13T00:20:00.436Z,66.81
2022-10-13T00:22:27.808Z,65.60
2022-10-13T00:24:54.179Z,66.45
2022-10-13T00:27:20.682Z,66.25
2022-10-13T00:29:47.021Z,67.25
2022-10-13T00:32:13.488Z,67.45
2022-10-13T00:34:40.081Z,66.50
2022-10-13T00:37:06.677Z,66.91
2022-10-13T00:39:33.137Z,66.27
2022-10-13T00:42:00.285Z,66.64
2022-10-13T00:45:09.074Z,66.39
2022-10-13T00:47:45.043Z,66.56
2022-10-13T00:50:16.570Z,66.52
2022-10-13T00:52:44.547Z,66.65
2022-10-13T00:55:17.391Z,66.58
2022-10-13T00:57:48.269Z,65.19
2022-10-13T01:00:15.112Z,65.78
2022-10-13T01:02:41.531Z,65.67
2022-10-13T01:05:08.469Z,65.84
2022-10-13T01:07:35.781Z,65.41
2022-10-13T01:10:03.578Z,65.30
2022-10-13T01:12:49.734Z,65.82
2022-10-13T01:15:41.616Z,65.64
2022-10-13T01:18:14.012Z,65.62
2022-10-13T01:20:58.305Z,65.08
2022-10-13T01:23:53.948Z,65.20
2022-10-13T01:26:32.782Z,65.00
2022-10-13T01:29:11.202Z,65.57
2022-10-13T01:32:10.816Z,65.32
2022-10-13T01:34:50.271Z,65.80
2022-10-13T01:37:33.370Z,65.85
2022-10-13T01:40:28.458Z,65.69
2022-10-13T01:43:03.899Z,65.12
2022-10-13T01:45:58.463Z,66.00
2022-10-13T01:48:27.751Z,66.37
2022-10-13T01:50:55.509Z,65.57
2022-10-13T01:53:23.346Z,65.60
2022-10-13T01:55:55.825Z,66.45
2022-10-13T01:58:24.999Z,66.99
2022-10-13T02:01:04.972Z,66.69
2022-10-13T02:03:46.482Z,66.80
2022-10-13T02:06:20.760Z,68.22
2022-10-13T02:09:25.871Z,67.14
2022-10-13T02:11:59.677Z,66.10
2022-10-13T02:14:32.225Z,66.65
2022-10-13T02:17:03.076Z,66.99
2022-10-13T02:19:33.581Z,67.68
2022-10-13T02:22:00.108Z,66.98
2022-10-13T02:24:26.618Z,66.64
2022-10-13T02:26:53.237Z,67.30
2022-10-13T02:29:19.840Z,67.28
2022-10-13T02:31:47.088Z,68.26
2022-10-13T02:34:14.282Z,68.25
2022-10-13T02:36:41.145Z,68.77
2022-10-13T02:39:09.884Z,68.80
2022-10-13T02:41:36.492Z,69.57
2022-10-13T02:44:02.840Z,69.50
2022-10-13T02:46:29.165Z,70.34
2022-10-13T02:48:55.468Z,70.69
2022-10-13T02:51:21.775Z,70.76
2022-10-13T02:53:48.294Z,73.08
2022-10-13T02:56:14.673Z,72.62
2022-10-13T02:58:40.990Z,74.70
2022-10-13T03:01:13.167Z,74.28
2022-10-13T03:03:40.034Z,75.30
2022-10-13T03:06:06.801Z,74.07
2022-10-13T03:08:34.777Z,74.32
2022-10-13T03:11:01.600Z,74.45
2022-10-13T03:13:28.084Z,76.34
2022-10-13T03:15:54.467Z,75.74
2022-10-13T03:18:20.781Z,75.00
2022-10-13T03:20:56.322Z,75.58
2022-10-13T03:23:22.662Z,75.08
2022-10-13T03:25:48.993Z,75.47
2022-10-13T03:28:15.718Z,73.76
2022-10-13T03:30:42.058Z,73.48
2022-10-13T03:33:08.390Z,74.11
2022-10-13T03:35:34.769Z,73.32
2022-10-13T03:38:01.117Z,72.94
2022-10-13T03:40:28.280Z,71.83
2022-10-13T03:42:55.170Z,71.87
2022-10-13T03:45:21.499Z,72.16
2022-10-13T03:47:47.832Z,72.32
2022-10-13T03:50:14.468Z,73.75
2022-10-13T03:52:41.157Z,73.15
2022-10-13T03:55:07.782Z,73.47
2022-10-13T03:57:34.129Z,73.16
2022-10-13T04:00:00.509Z,71.94
2022-10-13T04:02:26.923Z,72.81
2022-10-13T04:04:53.289Z,73.42
2022-10-13T04:07:19.618Z,71.12
2022-10-13T04:09:45.928Z,71.33
2022-10-13T04:12:13.064Z,71.46
2022-10-13T04:14:41.421Z,71.95
2022-10-13T04:17:07.758Z,70.99
2022-10-13T04:19:34.134Z,71.04
2022-10-13T04:22:00.498Z,70.90
2022-10-13T04:24:26.886Z,71.43
2022-10-13T04:26:53.394Z,71.70
2022-10-13T04:29:19.756Z,71.48
2022-10-13T04:31:46.139Z,72.74
2022-10-13T04:34:12.686Z,71.73
2022-10-13T04:36:39.072Z,72.10
2022-10-13T04:39:05.434Z,73.04
2022-10-13T04:41:31.792Z,72.22
2022-10-13T04:43:59.030Z,73.48
2022-10-13T04:46:26.872Z,74.07
2022-10-13T04:48:54.675Z,73.05
2022-10-13T04:51:23.433Z,73.87
2022-10-13T04:53:54.957Z,75.06
2022-10-13T04:56:21.296Z,75.90
2022-10-13T04:58:47.772Z,75.17
2022-10-13T05:01:21.869Z,75.39
2022-10-13T05:03:56.621Z,76.79
2022-10-13T05:06:25.657Z,76.80
2022-10-13T05:08:52.169Z,77.51
2022-10-13T05:11:20.431Z,77.51
2022-10-13T05:13:47.710Z,76.78
2022-10-13T05:16:16.154Z,75.15
2022-10-13T05:18:42.700Z,76.30
2022-10-13T05:21:12.007Z,75.21
2022-10-13T05:23:39.026Z,73.63
2022-10-13T05:26:07.787Z,73.22
2022-10-13T05:28:34.799Z,73.23
2022-10-13T05:31:14.291Z,73.98
2022-10-13T05:33:41.651Z,74.38
2022-10-13T05:36:11.353Z,72.36
2022-10-13T05:38:38.533Z,71.88
2022-10-13T05:41:07.184Z,74.62
2022-10-13T05:43:34.219Z,74.98
2022-10-13T05:46:01.061Z,75.33
2022-10-13T05:48:27.683Z,74.31
2022-10-13T05:50:55.772Z,75.49
2022-10-13T05:53:25.219Z,74.37
2022-10-13T05:55:54.449Z,76.24
2022-10-13T05:58:21.218Z,76.12
2022-10-13T06:00:47.891Z,75.08
2022-10-13T06:03:17.567Z,74.61
2022-10-13T06:05:47.343Z,73.40
2022-10-13T06:08:14.837Z,73.40
2022-10-13T06:10:42.694Z,72.42
2022-10-13T06:13:09.856Z,73.37
2022-10-13T06:15:36.485Z,73.35
2022-10-13T06:18:07.561Z,71.74
2022-10-13T06:20:33.874Z,72.92
2022-10-13T06:23:00.201Z,72.30
2022-10-13T06:25:26.588Z,70.80
2022-10-13T06:27:52.943Z,73.32
2022-10-13T06:30:19.249Z,73.12
2022-10-13T06:32:45.612Z,73.25
2022-10-13T06:35:11.962Z,74.65
2022-10-13T06:37:38.297Z,74.80
2022-10-13T06:40:05.530Z,75.95
2022-10-13T06:42:34.787Z,75.41
2022-10-13T06:45:01.272Z,77.13
2022-10-13T06:47:27.652Z,76.07
2022-10-13T06:49:54.297Z,76.03
2022-10-13T06:52:21.022Z,77.89
2022-10-13T06:54:47.758Z,78.64
2022-10-13T06:57:14.176Z,78.21
2022-10-13T06:59:40.522Z,78.25
2022-10-13T07:02:06.928Z,78.76
2022-10-13T07:04:33.308Z,79.44
2022-10-13T07:06:59.700Z,80.55
2022-10-13T07:09:26.110Z,80.29
2022-10-13T07:11:52.479Z,80.76
2022-10-13T07:14:18.799Z,80.23
2022-10-13T07:16:45.387Z,79.96
2022-10-13T07:19:11.753Z,81.13
2022-10-13T07:21:38.107Z,81.18
2022-10-13T07:24:04.692Z,83.01
2022-10-13T07:26:33.770Z,82.58
2022-10-13T07:29:00.608Z,84.56
2022-10-13T07:31:27.271Z,83.42
2022-10-13T07:33:54.233Z,84.21
2022-10-13T07:36:20.590Z,84.23
2022-10-13T07:38:47.094Z,82.90
2022-10-13T07:41:14.593Z,83.93
2022-10-13T07:43:41.956Z,84.74
2022-10-13T07:46:08.632Z,84.21
2022-10-13T07:48:35.724Z,84.00
2022-10-13T07:51:07.469Z,85.80
2022-10-13T07:53:35.290Z,85.96
2022-10-13T07:56:03.253Z,85.85
2022-10-13T07:58:29.568Z,85.32
2022-10-13T08:00:57.821Z,84.19
2022-10-13T08:03:24.207Z,85.13
2022-10-13T08:05:50.514Z,85.38
2022-10-13T08:08:16.966Z,85.33
2022-10-13T08:10:43.336Z,84.94
2022-10-13T08:13:10.816Z,85.02
2022-10-13T08:15:41.924Z,85.15
2022-10-13T08:18:09.236Z,84.58
2022-10-13T08:20:41.416Z,85.10
2022-10-13T08:23:10.636Z,83.93
2022-10-13T08:25:41.019Z,85.35
2022-10-13T08:28:23.998Z,85.82
2022-10-13T08:30:51.884Z,83.69
2022-10-13T08:33:18.309Z,85.02
2022-10-13T08:35:44.744Z,83.34
2022-10-13T08:38:11.195Z,82.69
2022-10-13T08:40:38.843Z,82.68
2022-10-13T08:43:13.831Z,82.61
2022-10-13T08:45:41.692Z,81.70
2022-10-13T08:48:17.905Z,82.39
2022-10-13T08:50:49.868Z,80.94
2022-10-13T08:53:19.142Z,80.10
2022-10-13T08:55:52.111Z,79.77
2022-10-13T08:58:28.876Z,79.31
2022-10-13T09:01:10.475Z,79.53
2022-10-13T09:03:52.153Z,78.49
2022-10-13T09:06:28.524Z,78.15
2022-10-13T09:09:01.337Z,78.19
2022-10-13T09:11:34.655Z,79.53
2022-10-13T09:14:04.409Z,78.72
2022-10-13T09:16:39.470Z,79.71
2022-10-13T09:19:36.542Z,80.48
2022-10-13T09:22:33.992Z,79.06
2022-10-13T09:25:06.463Z,78.97
2022-10-13T09:27:57.050Z,79.37
2022-10-13T09:30:28.133Z,78.93
2022-10-13T09:33:11.784Z,79.45
2022-10-13T09:35:39.445Z,79.71
2022-10-13T09:38:21.354Z,80.48
2022-10-13T09:41:16.759Z,73.61
2022-10-13T09:43:59.472Z,80.22
2022-10-13T09:46:27.721Z,80.39
2022-10-13T09:48:57.378Z,82.04
2022-10-13T09:51:39.416Z,82.19
2022-10-13T09:54:07.217Z,82.43
2022-10-13T09:56:46.119Z,82.07
2022-10-13T09:59:33.858Z,81.01
2022-10-13T10:02:32.264Z,80.97
2022-10-13T10:05:05.381Z,80.32
2022-10-13T10:07:33.232Z,81.33
2022-10-13T10:10:05.290Z,81.62
2022-10-13T10:12:36.932Z,81.15
2022-10-13T10:15:09.516Z,80.32
2022-10-13T10:17:52.009Z,80.13
2022-10-13T10:20:45.762Z,80.81
2022-10-13T10:23:21.783Z,81.33
2022-10-13T10:25:58.593Z,81.11
2022-10-13T10:28:28.005Z,80.84
2022-10-13T10:31:06.400Z,80.59
2022-10-13T10:34:03.018Z,80.64
2022-10-13T10:36:57.385Z,80.29
2022-10-13T10:39:36.845Z,80.48
2022-10-13T10:42:13.545Z,79.51
2022-10-13T10:44:42.695Z,79.57
2022-10-13T10:47:26.886Z,79.97
2022-10-13T10:50:01.685Z,79.70
2022-10-13T10:52:50.458Z,79.82
2022-10-13T10:55:19.832Z,79.22
2022-10-13T10:58:12.219Z,79.56
2022-10-13T11:00:48.881Z,79.98
2022-10-13T11:03:24.459Z,80.20
2022-10-13T11:06:23.046Z,79.88
2022-10-13T11:08:50.452Z,79.62
2022-10-13T11:11:24.906Z,79.70
2022-10-13T11:13:56.366Z,78.77
2022-10-13T11:16:40.750Z,79.27
2022-10-13T11:19:30.879Z,79.62
2022-10-13T11:21:57.140Z,79.49
2022-10-13T11:24:41.640Z,79.52
2022-10-13T11:27:07.905Z,80.18
2022-10-13T11:30:01.724Z,78.92
2022-10-13T11:32:30.466Z,79.20
2022-10-13T11:35:14.593Z,79.35
2022-10-13T11:38:06.439Z,79.03
2022-10-13T11:41:10.955Z,78.95
2022-10-13T11:44:03.714Z,77.70
2022-10-13T11:46:53.292Z,79.39
2022-10-13T11:49:25.829Z,79.41
2022-10-13T11:52:01.215Z,79.80
2022-10-13T11:54:51.101Z,79.39
2022-10-13T11:57:26.321Z,79.24
2022-10-13T11:59:55.866Z,80.10
2022-10-13T12:02:25.171Z,79.44
2022-10-13T12:05:19.174Z,79.18
2022-10-13T12:07:47.490Z,80.00
2022-10-13T12:10:40.770Z,78.45
2022-10-13T12:13:07.753Z,79.77
2022-10-13T12:15:43.197Z,79.98
2022-10-13T12:18:38.198Z,80.48
2022-10-13T12:21:17.448Z,79.34
2022-10-13T12:23:44.032Z,79.76
2022-10-13T12:26:20.342Z,79.40
2022-10-13T12:28:51.297Z,79.68
2022-10-13T12:31:22.559Z,78.68
2022-10-13T12:33:53.792Z,77.61
2022-10-13T12:36:25.296Z,77.93
2022-10-13T12:38:54.062Z,78.51
2022-10-13T12:41:26.828Z,78.54
2022-10-13T12:43:54.048Z,78.18
2022-10-13T12:46:39.298Z,77.68
2022-10-13T12:49:17.261Z,78.44
2022-10-13T12:51:46.751Z,77.82
2022-10-13T12:54:28.873Z,77.82
2022-10-13T12:56:59.751Z,78.43
2022-10-13T12:59:28.939Z,77.71
2022-10-13T13:02:01.473Z,76.78
2022-10-13T13:04:36.874Z,77.51
2022-10-13T13:07:05.421Z,77.84
2022-10-13T13:09:34.200Z,76.89
2022-10-13T13:12:21.729Z,77.45
2022-10-13T13:14:51.098Z,76.81
2022-10-13T13:17:27.691Z,76.96
2022-10-13T13:20:20.554Z,77.02
2022-10-13T13:22:47.001Z,76.63
2022-10-13T13:25:14.812Z,77.91
2022-10-13T13:27:41.165Z,77.03
2022-10-13T13:30:17.107Z,77.89
2022-10-13T13:32:43.534Z,77.57
2022-10-13T13:35:10.725Z,78.37
2022-10-13T13:40:54.033Z,76.56
2022-10-13T13:43:20.413Z,77.00
2022-10-13T13:45:46.730Z,76.24
2022-10-13T13:48:13.229Z,76.66
2022-10-13T13:50:40.189Z,76.58
2022-10-13T13:53:06.576Z,76.37
2022-10-13T13:55:32.964Z,76.42
2022-10-13T13:57:59.309Z,77.48
2022-10-13T14:00:26.696Z,77.58
2022-10-13T14:02:53.537Z,76.85
2022-10-13T14:05:19.930Z,77.66
2022-10-13T14:07:46.258Z,77.13
2022-10-13T14:10:12.604Z,77.77
2022-10-13T14:12:38.950Z,78.60
2022-10-13T14:15:06.307Z,78.11
2022-10-13T14:17:32.679Z,78.48
2022-10-13T14:19:58.988Z,78.35
2022-10-13T14:22:25.742Z,77.51
2022-10-13T14:24:52.690Z,78.05
2022-10-13T14:27:19.030Z,77.58
2022-10-13T14:29:45.412Z,77.09
2022-10-13T14:32:12.004Z,77.00
2022-10-13T14:34:38.367Z,75.77
2022-10-13T14:37:04.762Z,77.17
2022-10-13T14:39:31.089Z,77.60
2022-10-13T14:41:57.621Z,76.32
2022-10-13T14:44:23.985Z,77.64
2022-10-13T14:46:50.626Z,76.71
2022-10-13T14:49:16.985Z,76.91
2022-10-13T14:51:43.370Z,76.16
2022-10-13T14:54:09.753Z,77.01
2022-10-13T14:56:36.318Z,77.67
2022-10-13T14:59:05.938Z,77.22
2022-10-13T15:01:33.466Z,78.11
2022-10-13T15:04:00.834Z,77.87
2022-10-13T15:06:27.514Z,78.16
2022-10-13T15:08:54.786Z,78.44
2022-10-13T15:11:22.007Z,74.46
2022-10-13T15:13:48.858Z,79.36
2022-10-13T15:16:23.722Z,79.10
2022-10-13T15:18:50.772Z,79.15
2022-10-13T15:21:17.692Z,79.03
2022-10-13T15:23:44.772Z,79.60
2022-10-13T15:26:13.132Z,79.57
2022-10-13T15:28:42.382Z,80.95
2022-10-13T15:31:08.867Z,80.85
2022-10-13T15:33:35.281Z,80.85
2022-10-13T15:36:01.802Z,81.46
2022-10-13T15:38:28.269Z,81.92
2022-10-13T15:41:02.847Z,82.33
2022-10-13T15:43:29.438Z,82.81
2022-10-13T15:46:04.587Z,82.46
2022-10-13T15:48:31.706Z,81.38
2022-10-13T15:50:58.104Z,79.91
2022-10-13T15:53:24.891Z,79.30
2022-10-13T15:55:51.358Z,80.15
2022-10-13T15:58:18.188Z,78.86
2022-10-13T16:00:44.816Z,78.46
2022-10-13T16:03:15.541Z,78.77
2022-10-13T16:05:43.257Z,78.75
2022-10-13T16:08:10.191Z,78.35
2022-10-13T16:10:41.830Z,78.70
2022-10-13T16:13:09.623Z,77.62
2022-10-13T16:15:35.994Z,77.32
2022-10-13T16:18:02.462Z,77.30
2022-10-13T16:20:34.200Z,77.20
2022-10-13T16:23:00.986Z,77.08
2022-10-13T16:25:27.360Z,77.47
2022-10-13T16:27:53.682Z,77.08
2022-10-13T16:30:20.066Z,78.48
2022-10-13T16:32:46.434Z,78.14
2022-10-13T16:35:12.950Z,78.67
2022-10-13T16:37:39.294Z,78.89
2022-10-13T16:40:06.086Z,79.02
2022-10-13T16:42:32.431Z,79.09
2022-10-13T16:44:58.772Z,79.52
2022-10-13T16:47:25.258Z,79.99
2022-10-13T16:49:51.753Z,80.09
2022-10-13T16:52:18.062Z,79.71
2022-10-13T16:54:46.573Z,80.71
2022-10-13T16:57:13.103Z,80.34
2022-10-13T16:59:39.512Z,80.69
2022-10-13T17:02:05.842Z,80.24
2022-10-13T17:04:32.248Z,80.76
2022-10-13T17:06:58.930Z,80.88
2022-10-13T17:09:25.386Z,81.05
2022-10-13T17:11:51.706Z,80.77
2022-10-13T17:14:18.121Z,81.44
2022-10-13T17:16:45.150Z,81.16
2022-10-13T17:19:11.494Z,81.11
2022-10-13T17:21:37.903Z,82.06
2022-10-13T17:24:04.354Z,81.93
2022-10-13T17:26:31.459Z,82.09
2022-10-13T17:28:57.884Z,81.52
2022-10-13T17:31:25.110Z,81.69
2022-10-13T17:33:52.925Z,81.32
2022-10-13T17:36:25.169Z,81.67
2022-10-13T17:38:52.925Z,81.06
2022-10-13T17:41:19.679Z,80.89
2022-10-13T17:43:46.396Z,80.88
2022-10-13T17:46:34.983Z,80.28
2022-10-13T17:49:00.727Z,79.64
2022-10-13T17:51:27.896Z,79.60
2022-10-13T17:53:54.512Z,79.22
2022-10-13T17:56:25.226Z,78.63
2022-10-13T17:58:52.302Z,78.63
2022-10-13T18:01:25.177Z,78.50
2022-10-13T18:03:57.694Z,78.03
2022-10-13T18:06:24.227Z,77.94
2022-10-13T18:08:51.238Z,77.12
2022-10-13T18:11:20.720Z,77.16
2022-10-13T18:13:47.409Z,77.19
2022-10-13T18:16:16.765Z,77.24
2022-10-13T18:18:44.864Z,77.43
2022-10-13T18:21:14.266Z,76.89
2022-10-13T18:23:41.438Z,77.88
2022-10-13T18:26:13.398Z,77.67
2022-10-13T18:28:43.298Z,77.59
2022-10-13T18:31:21.280Z,77.49
2022-10-13T18:33:47.990Z,76.96
2022-10-13T18:36:17.363Z,77.71
2022-10-13T18:38:43.774Z,77.81
2022-10-13T18:41:10.216Z,78.21
2022-10-13T18:43:36.793Z,78.93
2022-10-13T18:46:04.162Z,80.44
2022-10-13T18:48:31.431Z,80.36
2022-10-13T18:51:06.233Z,81.03
2022-10-13T18:53:34.935Z,80.33
2022-10-13T18:56:06.669Z,79.86
2022-10-13T18:58:33.304Z,80.20
2022-10-13T19:01:08.312Z,80.08
2022-10-13T19:03:35.924Z,80.50
2022-10-13T19:06:04.266Z,80.69
2022-10-13T19:08:31.070Z,80.86
2022-10-13T19:10:57.511Z,81.33
2022-10-13T19:13:25.563Z,81.25
2022-10-13T19:16:02.045Z,80.14
2022-10-13T19:18:28.431Z,79.99
2022-10-13T19:20:54.785Z,80.89
2022-10-13T19:23:21.950Z,80.79
2022-10-13T19:25:48.665Z,80.49
2022-10-13T19:28:15.358Z,79.79
2022-10-13T19:30:42.160Z,79.57
2022-10-13T19:33:11.466Z,78.75
2022-10-13T19:35:51.322Z,78.82
2022-10-13T19:38:18.660Z,78.23
2022-10-13T19:40:49.398Z,77.63
2022-10-13T19:43:17.158Z,77.42
2022-10-13T19:45:46.711Z,77.28
2022-10-13T19:48:13.905Z,76.60
2022-10-13T19:50:41.770Z,76.60
2022-10-13T19:53:09.607Z,76.43
2022-10-13T19:55:40.476Z,76.64
2022-10-13T19:58:06.867Z,75.55
2022-10-13T20:00:34.044Z,76.21
2022-10-13T20:03:01.305Z,76.07
2022-10-13T20:05:28.014Z,76.17
2022-10-13T20:07:55.544Z,75.51
2022-10-13T20:10:22.459Z,76.17
2022-10-13T20:12:48.893Z,75.74
2022-10-13T20:15:15.376Z,77.01
2022-10-13T20:17:41.731Z,75.95
2022-10-13T20:20:08.596Z,76.04
2022-10-13T20:22:35.201Z,76.95
2022-10-13T20:25:01.543Z,77.36
2022-10-13T20:27:28.021Z,77.88
2022-10-13T20:29:54.449Z,76.85
2022-10-13T20:32:20.797Z,77.94
2022-10-13T20:34:47.255Z,78.97
2022-10-13T20:37:14.091Z,78.13
2022-10-13T20:39:40.943Z,78.97
2022-10-13T20:42:07.347Z,79.24
2022-10-13T20:44:33.770Z,79.95
2022-10-13T20:47:00.169Z,79.33
2022-10-13T20:49:26.623Z,78.64
2022-10-13T20:51:52.972Z,79.42
2022-10-13T20:54:19.296Z,80.49
2022-10-13T20:56:47.144Z,80.65
2022-10-13T20:59:16.586Z,81.92
2022-10-13T21:01:43.510Z,81.77
2022-10-13T21:04:10.125Z,83.25
2022-10-13T21:06:36.638Z,83.54
2022-10-13T21:09:05.043Z,83.57
2022-10-13T21:11:31.485Z,83.39
2022-10-13T21:13:57.914Z,84.17
2022-10-13T21:16:29.666Z,84.37
2022-10-13T21:18:56.615Z,85.50
2022-10-13T21:21:28.688Z,84.74
2022-10-13T21:23:57.347Z,84.11
2022-10-13T21:26:25.407Z,83.78
2022-10-13T21:28:52.319Z,85.46
2022-10-13T21:31:20.462Z,85.45
2022-10-13T21:33:46.821Z,83.70
2022-10-13T21:36:16.933Z,82.28
2022-10-13T21:38:45.425Z,82.07
2022-10-13T21:41:14.065Z,81.84
2022-10-13T21:43:40.792Z,80.97
2022-10-13T21:46:15.913Z,80.62
2022-10-13T21:48:43.791Z,81.38
2022-10-13T21:51:23.166Z,80.69
2022-10-13T21:53:51.854Z,79.07
2022-10-13T21:56:19.141Z,79.34
2022-10-13T21:58:45.994Z,78.92
2022-10-13T22:01:12.347Z,78.87
2022-10-13T22:03:38.780Z,79.18
2022-10-13T22:06:07.420Z,78.41
2022-10-13T22:08:38.730Z,78.56
2022-10-13T22:11:06.855Z,78.40
2022-10-13T22:13:33.353Z,78.97
2022-10-13T22:16:08.038Z,78.80
2022-10-13T22:18:34.370Z,78.37
2022-10-13T22:21:06.618Z,79.69
2022-10-13T22:23:33.412Z,78.52
2022-10-13T22:25:59.737Z,78.68
2022-10-13T22:28:26.180Z,78.66
2022-10-13T22:30:52.790Z,78.90
2022-10-13T22:33:20.012Z,80.73
2022-10-13T22:35:46.808Z,81.24
2022-10-13T22:38:14.399Z,81.40
2022-10-13T22:40:41.542Z,81.76
2022-10-13T22:43:08.305Z,81.57
2022-10-13T22:45:34.663Z,81.04
2022-10-13T22:48:02.087Z,80.75
2022-10-13T22:50:28.486Z,81.04
2022-10-13T22:52:54.817Z,82.10
2022-10-13T22:55:21.127Z,81.68
2022-10-13T22:57:47.438Z,82.80
2022-10-13T23:00:14.355Z,83.05
2022-10-13T23:02:40.686Z,82.14
2022-10-13T23:05:07.408Z,81.53
2022-10-13T23:07:33.753Z,82.83
2022-10-13T23:10:00.107Z,82.42
2022-10-13T23:12:26.443Z,82.26
2022-10-13T23:14:52.779Z,82.19
2022-10-13T23:17:19.458Z,81.31
2022-10-13T23:19:45.919Z,82.30
2022-10-13T23:22:12.261Z,82.19
2022-10-13T23:24:38.568Z,81.23
2022-10-13T23:27:04.870Z,80.34
2022-10-13T23:29:32.038Z,81.73
2022-10-13T23:31:58.342Z,80.14
2022-10-13T23:34:24.751Z,79.71
2022-10-13T23:36:51.469Z,78.61
2022-10-13T23:39:17.894Z,78.46
2022-10-13T23:41:44.198Z,77.45
2022-10-13T23:44:10.543Z,77.61
2022-10-13T23:46:36.869Z,77.71
2022-10-13T23:49:03.370Z,77.36
2022-10-13T23:51:29.855Z,77.43
2022-10-13T23:53:56.212Z,77.30
2022-10-13T23:56:23.390Z,75.71
2022-10-13T23:58:49.829Z,76.64
